sensor_id;sensor_type;location;lat;lon;timestamp;pressure;altitude;pressure_sealevel;temperature;humidity
4590;BME280;2307;48.448;9.216;2023-07-31T00:00:46;95559.97;;;15.83;100.00
4590;BME280;2307;48.448;9.216;2023-07-31T00:03:13;95558.13;;;15.83;100.00
4590;BME280;2307;48.448;9.216;2023-07-31T00:05:39;95549.59;;;15.86;100.00
4590;BME280;2307;48.448;9.216;2023-07-31T00:08:06;95553.31;;;15.75;100.00
4590;BME280;2307;48.448;9.216;2023-07-31T00:10:33;95554.63;;;15.68;100.00
4590;BME280;2307;48.448;9.216;2023-07-31T00:13:00;95547.44;;;15.73;100.00
4590;BME280;2307;48.448;9.216;2023-07-31T00:15:26;95547.47;;;15.83;100.00
4590;BME280;2307;48.448;9.216;2023-07-31T00:17:53;95553.84;;;15.77;100.00
4590;BME280;2307;48.448;9.216;2023-07-31T00:20:19;95547.94;;;15.60;100.00
4590;BME280;2307;48.448;9.216;2023-07-31T00:22:45;95543.06;;;15.42;100.00
4590;BME280;2307;48.448;9.216;2023-07-31T00:25:12;95542.53;;;15.40;100.00
4590;BME280;2307;48.448;9.216;2023-07-31T00:27:40;95547.34;;;15.48;100.00
4590;BME280;2307;48.448;9.216;2023-07-31T00:30:09;95541.97;;;15.33;100.00
4590;BME280;2307;48.448;9.216;2023-07-31T00:32:36;95553.69;;;15.37;100.00
4590;BME280;2307;48.448;9.216;2023-07-31T00:35:03;95548.94;;;15.44;100.00
4590;BME280;2307;48.448;9.216;2023-07-31T00:37:29;95553.25;;;15.55;100.00
4590;BME280;2307;48.448;9.216;2023-07-31T00:39:55;95545.28;;;15.65;100.00
4590;BME280;2307;48.448;9.216;2023-07-31T00:42:22;95551.47;;;15.76;100.00
4590;BME280;2307;48.448;9.216;2023-07-31T00:44:50;95559.69;;;15.74;100.00
4590;BME280;2307;48.448;9.216;2023-07-31T00:47:16;95557.78;;;15.60;100.00
4590;BME280;2307;48.448;9.216;2023-07-31T00:49:43;95561.41;;;15.38;100.00
4590;BME280;2307;48.448;9.216;2023-07-31T00:52:10;95551.50;;;15.24;100.00
4590;BME280;2307;48.448;9.216;2023-07-31T00:54:36;95548.59;;;15.30;100.00
4590;BME280;2307;48.448;9.216;2023-07-31T00:57:03;95547.56;;;15.31;100.00
4590;BME280;2307;48.448;9.216;2023-07-31T00:59:29;95548.09;;;15.38;100.00
4590;BME280;2307;48.448;9.216;2023-07-31T01:01:57;95545.19;;;15.45;100.00
4590;BME280;2307;48.448;9.216;2023-07-31T01:04:23;95535.63;;;15.44;100.00
4590;BME280;2307;48.448;9.216;2023-07-31T01:06:52;95542.28;;;15.47;100.00
4590;BME280;2307;48.448;9.216;2023-07-31T01:09:23;95544.91;;;15.41;100.00
4590;BME280;2307;48.448;9.216;2023-07-31T01:11:55;95530.25;;;15.34;100.00
4590;BME280;2307;48.448;9.216;2023-07-31T01:14:22;95531.88;;;15.40;100.00
4590;BME280;2307;48.448;9.216;2023-07-31T01:16:49;95533.28;;;15.53;100.00
4590;BME280;2307;48.448;9.216;2023-07-31T01:19:17;95529.81;;;15.52;100.00
4590;BME280;2307;48.448;9.216;2023-07-31T01:21:50;95525.56;;;15.56;100.00
4590;BME280;2307;48.448;9.216;2023-07-31T01:24:22;95527.97;;;15.58;100.00
4590;BME280;2307;48.448;9.216;2023-07-31T01:26:52;95515.91;;;15.40;100.00
4590;BME280;2307;48.448;9.216;2023-07-31T01:29:20;95516.47;;;15.47;100.00
4590;BME280;2307;48.448;9.216;2023-07-31T01:31:50;95519.16;;;15.52;100.00
4590;BME280;2307;48.448;9.216;2023-07-31T01:34:19;95516.25;;;15.54;100.00
4590;BME280;2307;48.448;9.216;2023-07-31T01:36:47;95512.50;;;15.55;100.00
4590;BME280;2307;48.448;9.216;2023-07-31T01:39:13;95504.28;;;15.56;100.00
4590;BME280;2307;48.448;9.216;2023-07-31T01:41:40;95506.66;;;15.53;100.00
4590;BME280;2307;48.448;9.216;2023-07-31T01:44:08;95504.28;;;15.61;100.00
4590;BME280;2307;48.448;9.216;2023-07-31T01:46:34;95493.13;;;15.69;100.00
4590;BME280;2307;48.448;9.216;2023-07-31T01:49:01;95491.00;;;15.66;100.00
4590;BME280;2307;48.448;9.216;2023-07-31T01:51:27;95499.75;;;15.67;100.00
4590;BME280;2307;48.448;9.216;2023-07-31T01:53:54;95504.56;;;15.65;100.00
4590;BME280;2307;48.448;9.216;2023-07-31T01:56:20;95506.94;;;15.61;100.00
4590;BME280;2307;48.448;9.216;2023-07-31T01:58:47;95491.25;;;15.65;100.00
4590;BME280;2307;48.448;9.216;2023-07-31T02:01:14;95499.50;;;15.68;100.00
4590;BME280;2307;48.448;9.216;2023-07-31T02:03:41;95504.56;;;15.75;100.00
4590;BME280;2307;48.448;9.216;2023-07-31T02:06:07;95497.66;;;15.79;100.00
4590;BME280;2307;48.448;9.216;2023-07-31T02:08:34;95496.06;;;15.78;100.00
4590;BME280;2307;48.448;9.216;2023-07-31T02:11:00;95492.59;;;15.72;100.00
4590;BME280;2307;48.448;9.216;2023-07-31T02:13:27;95496.84;;;15.83;100.00
4590;BME280;2307;48.448;9.216;2023-07-31T02:15:53;95489.38;;;15.70;100.00
4590;BME280;2307;48.448;9.216;2023-07-31T02:18:21;95491.78;;;15.72;100.00
4590;BME280;2307;48.448;9.216;2023-07-31T02:20:48;95485.09;;;15.64;100.00
4590;BME280;2307;48.448;9.216;2023-07-31T02:23:16;95472.06;;;15.53;100.00
4590;BME280;2307;48.448;9.216;2023-07-31T02:25:42;95485.09;;;15.49;100.00
4590;BME280;2307;48.448;9.216;2023-07-31T02:28:08;95471.75;;;15.44;100.00
4590;BME280;2307;48.448;9.216;2023-07-31T02:30:35;95458.44;;;15.44;100.00
4590;BME280;2307;48.448;9.216;2023-07-31T02:33:01;95456.84;;;15.48;100.00
4590;BME280;2307;48.448;9.216;2023-07-31T02:35:29;95460.59;;;15.52;100.00
4590;BME280;2307;48.448;9.216;2023-07-31T02:37:55;95460.88;;;15.56;100.00
4590;BME280;2307;48.448;9.216;2023-07-31T02:40:21;95458.97;;;15.46;100.00
4590;BME280;2307;48.448;9.216;2023-07-31T02:42:48;95459.22;;;15.44;100.00
4590;BME280;2307;48.448;9.216;2023-07-31T02:45:14;95450.13;;;15.35;100.00
4590;BME280;2307;48.448;9.216;2023-07-31T02:47:41;95449.88;;;15.27;100.00
4590;BME280;2307;48.448;9.216;2023-07-31T02:50:07;95447.19;;;15.27;100.00
4590;BME280;2307;48.448;9.216;2023-07-31T02:52:35;95448.03;;;15.42;100.00
4590;BME280;2307;48.448;9.216;2023-07-31T02:55:02;95456.88;;;15.53;100.00
4590;BME280;2307;48.448;9.216;2023-07-31T02:57:28;95455.28;;;15.52;100.00
4590;BME280;2307;48.448;9.216;2023-07-31T02:59:54;95450.22;;;15.56;100.00
4590;BME280;2307;48.448;9.216;2023-07-31T03:02:21;95441.44;;;15.60;100.00
4590;BME280;2307;48.448;9.216;2023-07-31T03:04:47;95450.50;;;15.64;100.00
4590;BME280;2307;48.448;9.216;2023-07-31T03:07:13;95442.78;;;15.68;100.00
4590;BME280;2307;48.448;9.216;2023-07-31T03:09:41;95437.44;;;15.68;100.00
4590;BME280;2307;48.448;9.216;2023-07-31T03:12:08;95443.59;;;15.68;100.00
4590;BME280;2307;48.448;9.216;2023-07-31T03:14:34;95435.59;;;15.68;100.00
4590;BME280;2307;48.448;9.216;2023-07-31T03:17:01;95429.47;;;15.68;100.00
4590;BME280;2307;48.448;9.216;2023-07-31T03:19:29;95422.28;;;15.63;100.00
4590;BME280;2307;48.448;9.216;2023-07-31T03:21:56;95423.63;;;15.66;100.00
4590;BME280;2307;48.448;9.216;2023-07-31T03:24:22;95427.56;;;15.48;100.00
4590;BME280;2307;48.448;9.216;2023-07-31T03:26:50;95425.94;;;15.37;100.00
4590;BME280;2307;48.448;9.216;2023-07-31T03:29:16;95417.13;;;15.26;100.00
4590;BME280;2307;48.448;9.216;2023-07-31T03:31:43;95420.59;;;15.27;100.00
4590;BME280;2307;48.448;9.216;2023-07-31T03:34:09;95426.44;;;15.24;100.00
4590;BME280;2307;48.448;9.216;2023-07-31T03:36:35;95425.13;;;15.26;100.00
4590;BME280;2307;48.448;9.216;2023-07-31T03:39:02;95419.81;;;15.36;100.00
4590;BME280;2307;48.448;9.216;2023-07-31T03:41:28;95432.34;;;15.41;100.00
4590;BME280;2307;48.448;9.216;2023-07-31T03:43:56;95430.72;;;15.45;100.00
4590;BME280;2307;48.448;9.216;2023-07-31T03:46:22;95441.91;;;15.37;100.00
4590;BME280;2307;48.448;9.216;2023-07-31T03:48:49;95438.44;;;15.41;100.00
4590;BME280;2307;48.448;9.216;2023-07-31T03:51:15;95444.63;;;15.52;100.00
4590;BME280;2307;48.448;9.216;2023-07-31T03:53:42;95451.56;;;15.58;100.00
4590;BME280;2307;48.448;9.216;2023-07-31T03:56:09;95451.03;;;15.56;100.00
4590;BME280;2307;48.448;9.216;2023-07-31T03:58:35;95454.75;;;15.60;100.00
4590;BME280;2307;48.448;9.216;2023-07-31T04:01:03;95436.63;;;15.52;100.00
4590;BME280;2307;48.448;9.216;2023-07-31T04:03:30;95436.63;;;15.57;100.00
4590;BME280;2307;48.448;9.216;2023-07-31T04:05:56;95440.94;;;15.63;100.00
4590;BME280;2307;48.448;9.216;2023-07-31T04:08:22;95447.56;;;15.61;100.00
4590;BME280;2307;48.448;9.216;2023-07-31T04:10:49;95440.06;;;15.48;100.00
4590;BME280;2307;48.448;9.216;2023-07-31T04:13:15;95443.25;;;15.34;100.00
4590;BME280;2307;48.448;9.216;2023-07-31T04:15:42;95443.53;;;15.48;100.00
4590;BME280;2307;48.448;9.216;2023-07-31T04:18:10;95452.09;;;15.50;100.00
4590;BME280;2307;48.448;9.216;2023-07-31T04:20:36;95456.28;;;15.46;100.00
4590;BME280;2307;48.448;9.216;2023-07-31T04:23:02;95455.00;;;15.49;100.00
4590;BME280;2307;48.448;9.216;2023-07-31T04:25:29;95452.09;;;15.50;100.00
4590;BME280;2307;48.448;9.216;2023-07-31T04:27:56;95447.28;;;15.57;100.00
4590;BME280;2307;48.448;9.216;2023-07-31T04:30:23;95445.16;;;15.64;100.00
4590;BME280;2307;48.448;9.216;2023-07-31T04:32:50;95442.22;;;15.56;100.00
4590;BME280;2307;48.448;9.216;2023-07-31T04:35:18;95432.59;;;15.44;100.00
4590;BME280;2307;48.448;9.216;2023-07-31T04:37:44;95425.41;;;15.40;100.00
4590;BME280;2307;48.448;9.216;2023-07-31T04:40:13;95415.06;;;15.49;100.00
4590;BME280;2307;48.448;9.216;2023-07-31T04:42:40;95411.91;;;15.57;100.00
4590;BME280;2307;48.448;9.216;2023-07-31T04:45:07;95414.81;;;15.55;100.00
4590;BME280;2307;48.448;9.216;2023-07-31T04:47:33;95416.94;;;15.53;100.00
4590;BME280;2307;48.448;9.216;2023-07-31T04:49:59;95423.88;;;15.59;100.00
4590;BME280;2307;48.448;9.216;2023-07-31T04:52:27;95431.88;;;15.59;100.00
4590;BME280;2307;48.448;9.216;2023-07-31T04:54:54;95419.84;;;15.52;100.00
4590;BME280;2307;48.448;9.216;2023-07-31T04:57:20;95433.41;;;15.45;100.00
4590;BME280;2307;48.448;9.216;2023-07-31T04:59:46;95427.25;;;15.44;100.00
4590;BME280;2307;48.448;9.216;2023-07-31T05:02:13;95428.41;;;15.59;100.00
4590;BME280;2307;48.448;9.216;2023-07-31T05:04:39;95424.94;;;15.53;100.00
4590;BME280;2307;48.448;9.216;2023-07-31T05:07:05;95430.53;;;15.57;100.00
4590;BME280;2307;48.448;9.216;2023-07-31T05:09:33;95425.72;;;15.64;100.00
4590;BME280;2307;48.448;9.216;2023-07-31T05:12:00;95430.53;;;15.82;100.00
4590;BME280;2307;48.448;9.216;2023-07-31T05:14:26;95424.16;;;15.78;100.00
4590;BME280;2307;48.448;9.216;2023-07-31T05:16:53;95424.41;;;15.76;100.00
4590;BME280;2307;48.448;9.216;2023-07-31T05:19:19;95439.84;;;15.89;100.00
4590;BME280;2307;48.448;9.216;2023-07-31T05:21:45;95437.47;;;15.93;100.00
4590;BME280;2307;48.448;9.216;2023-07-31T05:24:12;95430.78;;;15.70;100.00
4590;BME280;2307;48.448;9.216;2023-07-31T05:26:39;95438.81;;;15.85;100.00
4590;BME280;2307;48.448;9.216;2023-07-31T05:29:06;95429.19;;;15.89;100.00
4590;BME280;2307;48.448;9.216;2023-07-31T05:31:32;95423.34;;;15.82;100.00
4590;BME280;2307;48.448;9.216;2023-07-31T05:33:58;95424.69;;;15.90;100.00
4590;BME280;2307;48.448;9.216;2023-07-31T05:36:25;95439.59;;;16.06;100.00
4590;BME280;2307;48.448;9.216;2023-07-31T05:38:51;95428.66;;;16.13;100.00
4590;BME280;2307;48.448;9.216;2023-07-31T05:41:18;95432.38;;;16.22;100.00
4590;BME280;2307;48.448;9.216;2023-07-31T05:43:45;95438.75;;;16.36;100.00
4590;BME280;2307;48.448;9.216;2023-07-31T05:46:12;95441.38;;;16.46;100.00
4590;BME280;2307;48.448;9.216;2023-07-31T05:48:38;95440.88;;;16.64;100.00
4590;BME280;2307;48.448;9.216;2023-07-31T05:51:05;95441.59;;;16.75;100.00
4590;BME280;2307;48.448;9.216;2023-07-31T05:53:32;95444.53;;;16.78;100.00
4590;BME280;2307;48.448;9.216;2023-07-31T05:55:58;95436.28;;;16.80;100.00
4590;BME280;2307;48.448;9.216;2023-07-31T05:58:24;95438.66;;;16.81;100.00
4590;BME280;2307;48.448;9.216;2023-07-31T06:00:52;95439.75;;;16.80;100.00
4590;BME280;2307;48.448;9.216;2023-07-31T06:03:19;95445.09;;;16.80;100.00
4590;BME280;2307;48.448;9.216;2023-07-31T06:05:45;95438.09;;;16.84;100.00
4590;BME280;2307;48.448;9.216;2023-07-31T06:08:11;95446.38;;;16.88;100.00
4590;BME280;2307;48.448;9.216;2023-07-31T06:10:40;95446.59;;;17.02;100.00
4590;BME280;2307;48.448;9.216;2023-07-31T06:13:06;95440.97;;;17.08;100.00
4590;BME280;2307;48.448;9.216;2023-07-31T06:15:33;95423.63;;;17.06;100.00
4590;BME280;2307;48.448;9.216;2023-07-31T06:18:01;95431.09;;;17.09;100.00
4590;BME280;2307;48.448;9.216;2023-07-31T06:20:28;95431.63;;;17.06;100.00
4590;BME280;2307;48.448;9.216;2023-07-31T06:22:54;95432.41;;;17.06;100.00
4590;BME280;2307;48.448;9.216;2023-07-31T06:25:21;95431.34;;;17.07;100.00
4590;BME280;2307;48.448;9.216;2023-07-31T06:27:47;95435.88;;;17.07;100.00
4590;BME280;2307;48.448;9.216;2023-07-31T06:30:13;95433.22;;;17.07;100.00
4590;BME280;2307;48.448;9.216;2023-07-31T06:32:40;95435.38;;;17.05;100.00
4590;BME280;2307;48.448;9.216;2023-07-31T06:35:08;95427.06;;;17.06;100.00
4590;BME280;2307;48.448;9.216;2023-07-31T06:37:34;95429.41;;;17.23;100.00
4590;BME280;2307;48.448;9.216;2023-07-31T06:40:01;95432.53;;;17.35;100.00
4590;BME280;2307;48.448;9.216;2023-07-31T06:42:27;95428.53;;;17.37;100.00
4590;BME280;2307;48.448;9.216;2023-07-31T06:44:53;95433.03;;;17.47;100.00
4590;BME280;2307;48.448;9.216;2023-07-31T06:47:20;95433.25;;;17.50;99.93
4590;BME280;2307;48.448;9.216;2023-07-31T06:49:46;95442.53;;;17.63;100.00
4590;BME280;2307;48.448;9.216;2023-07-31T06:52:14;95438.16;;;17.77;96.56
4590;BME280;2307;48.448;9.216;2023-07-31T06:54:40;95436.56;;;17.76;92.60
4590;BME280;2307;48.448;9.216;2023-07-31T06:57:07;95428.47;;;17.91;95.66
4590;BME280;2307;48.448;9.216;2023-07-31T06:59:33;95416.09;;;18.00;98.91
4590;BME280;2307;48.448;9.216;2023-07-31T07:01:59;95429.72;;;17.99;92.77
4590;BME280;2307;48.448;9.216;2023-07-31T07:04:26;95429.47;;;17.95;95.44
4590;BME280;2307;48.448;9.216;2023-07-31T07:06:52;95434.22;;;18.03;93.18
4590;BME280;2307;48.448;9.216;2023-07-31T07:09:20;95440.69;;;17.97;91.39
4590;BME280;2307;48.448;9.216;2023-07-31T07:11:47;95422.94;;;18.12;91.27
4590;BME280;2307;48.448;9.216;2023-07-31T07:14:13;95433.38;;;18.08;90.64
4590;BME280;2307;48.448;9.216;2023-07-31T07:16:39;95438.28;;;18.01;91.91
4590;BME280;2307;48.448;9.216;2023-07-31T07:19:07;95434.41;;;18.12;95.37
4590;BME280;2307;48.448;9.216;2023-07-31T07:21:33;95438.78;;;18.32;94.56
4590;BME280;2307;48.448;9.216;2023-07-31T07:23:59;95440.50;;;18.46;93.15
4590;BME280;2307;48.448;9.216;2023-07-31T07:26:27;95430.09;;;18.45;94.82
4590;BME280;2307;48.448;9.216;2023-07-31T07:28:53;95433.59;;;18.45;91.27
4590;BME280;2307;48.448;9.216;2023-07-31T07:31:20;95439.44;;;18.47;91.86
4590;BME280;2307;48.448;9.216;2023-07-31T07:33:46;95441.59;;;18.45;92.53
4590;BME280;2307;48.448;9.216;2023-07-31T07:36:13;95435.44;;;18.50;92.89
4590;BME280;2307;48.448;9.216;2023-07-31T07:38:39;95433.25;;;18.52;90.03
4590;BME280;2307;48.448;9.216;2023-07-31T07:41:06;95439.06;;;18.59;92.02
4590;BME280;2307;48.448;9.216;2023-07-31T07:43:34;95424.00;;;18.68;91.50
4590;BME280;2307;48.448;9.216;2023-07-31T07:46:00;95421.88;;;18.65;90.43
4590;BME280;2307;48.448;9.216;2023-07-31T07:48:27;95415.97;;;18.68;90.25
4590;BME280;2307;48.448;9.216;2023-07-31T07:50:53;95419.63;;;18.77;91.78
4590;BME280;2307;48.448;9.216;2023-07-31T07:53:19;95412.34;;;18.83;91.34
4590;BME280;2307;48.448;9.216;2023-07-31T07:55:46;95420.53;;;18.91;90.64
4590;BME280;2307;48.448;9.216;2023-07-31T07:58:12;95420.88;;;18.85;87.75
4590;BME280;2307;48.448;9.216;2023-07-31T08:00:40;95434.00;;;18.81;82.95
4590;BME280;2307;48.448;9.216;2023-07-31T08:03:06;95424.19;;;18.77;83.66
4590;BME280;2307;48.448;9.216;2023-07-31T08:05:33;95429.75;;;18.80;83.88
4590;BME280;2307;48.448;9.216;2023-07-31T08:07:59;95429.47;;;18.82;86.66
4590;BME280;2307;48.448;9.216;2023-07-31T08:10:26;95426.94;;;18.90;83.09
4590;BME280;2307;48.448;9.216;2023-07-31T08:12:52;95416.78;;;18.92;82.82
4590;BME280;2307;48.448;9.216;2023-07-31T08:15:19;95416.69;;;18.97;89.20
4590;BME280;2307;48.448;9.216;2023-07-31T08:17:46;95421.47;;;19.00;87.00
4590;BME280;2307;48.448;9.216;2023-07-31T08:20:13;95432.75;;;18.97;83.83
4590;BME280;2307;48.448;9.216;2023-07-31T08:22:39;95422.13;;;18.92;80.78
4590;BME280;2307;48.448;9.216;2023-07-31T08:25:06;95410.88;;;18.90;83.94
4590;BME280;2307;48.448;9.216;2023-07-31T08:27:32;95405.25;;;18.92;87.21
4590;BME280;2307;48.448;9.216;2023-07-31T08:29:59;95405.00;;;18.70;82.32
4590;BME280;2307;48.448;9.216;2023-07-31T08:32:25;95396.72;;;18.66;84.22
4590;BME280;2307;48.448;9.216;2023-07-31T08:34:53;95399.00;;;18.54;80.44
4590;BME280;2307;48.448;9.216;2023-07-31T08:37:19;95399.31;;;18.47;84.15
4590;BME280;2307;48.448;9.216;2023-07-31T08:39:46;95400.09;;;18.53;85.36
4590;BME280;2307;48.448;9.216;2023-07-31T08:42:12;95397.41;;;18.53;84.76
4590;BME280;2307;48.448;9.216;2023-07-31T08:44:38;95394.63;;;18.63;83.91
4590;BME280;2307;48.448;9.216;2023-07-31T08:47:05;95396.19;;;18.88;88.20
4590;BME280;2307;48.448;9.216;2023-07-31T08:49:32;95393.84;;;19.05;82.18
4590;BME280;2307;48.448;9.216;2023-07-31T08:52:01;95395.97;;;19.27;84.58
4590;BME280;2307;48.448;9.216;2023-07-31T08:54:28;95393.09;;;19.42;79.44
4590;BME280;2307;48.448;9.216;2023-07-31T08:56:56;95388.06;;;19.40;74.56
4590;BME280;2307;48.448;9.216;2023-07-31T08:59:24;95392.06;;;19.38;77.58
4590;BME280;2307;48.448;9.216;2023-07-31T09:01:53;95390.97;;;19.39;77.65
4590;BME280;2307;48.448;9.216;2023-07-31T09:04:19;95386.00;;;19.51;81.28
4590;BME280;2307;48.448;9.216;2023-07-31T09:06:46;95379.66;;;19.47;72.41
4590;BME280;2307;48.448;9.216;2023-07-31T09:09:15;95388.97;;;19.68;75.07
4590;BME280;2307;48.448;9.216;2023-07-31T09:11:42;95402.59;;;19.53;77.43
4590;BME280;2307;48.448;9.216;2023-07-31T09:14:08;95403.09;;;19.55;78.60
4590;BME280;2307;48.448;9.216;2023-07-31T09:16:35;95402.28;;;19.54;77.24
4590;BME280;2307;48.448;9.216;2023-07-31T09:19:01;95383.50;;;19.73;82.12
4590;BME280;2307;48.448;9.216;2023-07-31T09:21:28;95384.88;;;19.89;79.87
4590;BME280;2307;48.448;9.216;2023-07-31T09:23:55;95375.06;;;19.98;78.66
4590;BME280;2307;48.448;9.216;2023-07-31T09:26:32;95368.44;;;20.09;76.58
4590;BME280;2307;48.448;9.216;2023-07-31T09:28:59;95379.00;;;19.87;72.73
4590;BME280;2307;48.448;9.216;2023-07-31T09:31:32;95374.31;;;19.79;74.68
4590;BME280;2307;48.448;9.216;2023-07-31T09:33:59;95381.97;;;20.18;79.19
4590;BME280;2307;48.448;9.216;2023-07-31T09:36:28;95379.44;;;20.40;74.14
4590;BME280;2307;48.448;9.216;2023-07-31T09:38:55;95384.31;;;20.52;71.51
4590;BME280;2307;48.448;9.216;2023-07-31T09:41:21;95376.56;;;20.78;68.79
4590;BME280;2307;48.448;9.216;2023-07-31T09:43:54;95375.19;;;20.80;70.40
4590;BME280;2307;48.448;9.216;2023-07-31T09:46:20;95369.91;;;20.75;70.21
4590;BME280;2307;48.448;9.216;2023-07-31T09:48:47;95361.06;;;20.88;71.48
4590;BME280;2307;48.448;9.216;2023-07-31T09:51:14;95361.47;;;20.95;68.73
4590;BME280;2307;48.448;9.216;2023-07-31T09:53:40;95361.06;;;20.88;71.18
4590;BME280;2307;48.448;9.216;2023-07-31T09:56:07;95351.81;;;20.81;69.79
4590;BME280;2307;48.448;9.216;2023-07-31T09:58:34;95342.75;;;20.90;70.99
4590;BME280;2307;48.448;9.216;2023-07-31T10:01:02;95344.16;;;20.88;74.33
4590;BME280;2307;48.448;9.216;2023-07-31T10:03:29;95329.25;;;20.68;72.19
4590;BME280;2307;48.448;9.216;2023-07-31T10:05:55;95323.28;;;20.71;72.47
4590;BME280;2307;48.448;9.216;2023-07-31T10:08:23;95314.16;;;20.58;74.75
4590;BME280;2307;48.448;9.216;2023-07-31T10:10:54;95319.72;;;20.62;77.14
4590;BME280;2307;48.448;9.216;2023-07-31T10:13:24;95310.28;;;20.64;80.87
4590;BME280;2307;48.448;9.216;2023-07-31T10:15:51;95312.19;;;20.64;80.35
4590;BME280;2307;48.448;9.216;2023-07-31T10:18:19;95298.75;;;20.64;76.91
4590;BME280;2307;48.448;9.216;2023-07-31T10:20:47;95307.50;;;20.83;77.48
4590;BME280;2307;48.448;9.216;2023-07-31T10:23:13;95306.81;;;20.64;73.67
4590;BME280;2307;48.448;9.216;2023-07-31T10:25:41;95285.53;;;20.54;71.10
4590;BME280;2307;48.448;9.216;2023-07-31T10:28:08;95285.22;;;20.55;77.11
4590;BME280;2307;48.448;9.216;2023-07-31T10:30:36;95285.03;;;20.65;77.49
4590;BME280;2307;48.448;9.216;2023-07-31T10:33:04;95286.31;;;20.68;76.04
4590;BME280;2307;48.448;9.216;2023-07-31T10:35:35;95273.81;;;20.63;74.95
4590;BME280;2307;48.448;9.216;2023-07-31T10:38:09;95272.81;;;20.73;73.62
4590;BME280;2307;48.448;9.216;2023-07-31T10:40:37;95278.31;;;20.90;70.81
4590;BME280;2307;48.448;9.216;2023-07-31T10:43:04;95277.50;;;21.03;70.71
4590;BME280;2307;48.448;9.216;2023-07-31T10:45:33;95263.50;;;21.29;72.49
4590;BME280;2307;48.448;9.216;2023-07-31T10:48:05;95252.88;;;21.46;65.82
4590;BME280;2307;48.448;9.216;2023-07-31T10:50:36;95254.56;;;21.64;69.56
4590;BME280;2307;48.448;9.216;2023-07-31T10:53:03;95270.38;;;21.88;69.47
4590;BME280;2307;48.448;9.216;2023-07-31T10:55:30;95270.72;;;21.95;65.64
4590;BME280;2307;48.448;9.216;2023-07-31T10:57:57;95277.88;;;21.99;67.59
4590;BME280;2307;48.448;9.216;2023-07-31T11:00:25;95267.28;;;21.94;69.04
4590;BME280;2307;48.448;9.216;2023-07-31T11:02:58;95268.09;;;22.03;69.77
4590;BME280;2307;48.448;9.216;2023-07-31T11:08:14;95251.53;;;22.10;65.96
4590;BME280;2307;48.448;9.216;2023-07-31T11:10:41;95246.53;;;21.95;63.23
4590;BME280;2307;48.448;9.216;2023-07-31T11:13:08;95253.69;;;21.77;60.99
4590;BME280;2307;48.448;9.216;2023-07-31T11:15:34;95254.13;;;21.70;65.09
4590;BME280;2307;48.448;9.216;2023-07-31T11:18:01;95247.72;;;21.80;67.46
4590;BME280;2307;48.448;9.216;2023-07-31T11:20:30;95248.06;;;22.18;66.45
4590;BME280;2307;48.448;9.216;2023-07-31T11:22:58;95245.09;;;22.37;60.19
4590;BME280;2307;48.448;9.216;2023-07-31T11:25:25;95240.00;;;22.66;60.42
4590;BME280;2307;48.448;9.216;2023-07-31T11:27:52;95243.81;;;22.91;57.86
4590;BME280;2307;48.448;9.216;2023-07-31T11:30:19;95249.66;;;22.84;56.17
4590;BME280;2307;48.448;9.216;2023-07-31T11:32:45;95246.44;;;22.65;56.71
4590;BME280;2307;48.448;9.216;2023-07-31T11:35:12;95238.56;;;22.68;58.84
4590;BME280;2307;48.448;9.216;2023-07-31T11:37:39;95241.28;;;23.03;62.94
4590;BME280;2307;48.448;9.216;2023-07-31T11:40:06;95249.03;;;23.21;60.89
4590;BME280;2307;48.448;9.216;2023-07-31T11:42:35;95249.84;;;23.48;53.30
4590;BME280;2307;48.448;9.216;2023-07-31T11:45:02;95240.16;;;23.64;52.28
4590;BME280;2307;48.448;9.216;2023-07-31T11:47:29;95231.66;;;23.91;52.76
4590;BME280;2307;48.448;9.216;2023-07-31T11:49:56;95234.66;;;23.98;51.24
4590;BME280;2307;48.448;9.216;2023-07-31T11:52:22;95244.22;;;23.87;50.42
4590;BME280;2307;48.448;9.216;2023-07-31T11:54:49;95232.94;;;23.85;50.44
4590;BME280;2307;48.448;9.216;2023-07-31T11:57:16;95229.03;;;23.74;51.19
4590;BME280;2307;48.448;9.216;2023-07-31T11:59:44;95216.28;;;23.92;52.44
4590;BME280;2307;48.448;9.216;2023-07-31T12:02:10;95228.69;;;23.84;54.34
4590;BME280;2307;48.448;9.216;2023-07-31T12:04:37;95219.75;;;23.92;51.70
4590;BME280;2307;48.448;9.216;2023-07-31T12:07:04;95220.25;;;23.86;52.80
4590;BME280;2307;48.448;9.216;2023-07-31T12:09:30;95208.78;;;23.51;52.10
4590;BME280;2307;48.448;9.216;2023-07-31T12:11:56;95211.19;;;23.09;54.82
4590;BME280;2307;48.448;9.216;2023-07-31T12:14:23;95203.41;;;23.34;55.94
4590;BME280;2307;48.448;9.216;2023-07-31T12:16:55;95195.97;;;23.31;57.53
4590;BME280;2307;48.448;9.216;2023-07-31T12:19:22;95195.03;;;23.18;55.67
4590;BME280;2307;48.448;9.216;2023-07-31T12:21:48;95196.75;;;22.97;57.23
4590;BME280;2307;48.448;9.216;2023-07-31T12:24:17;95190.22;;;22.63;61.27
4590;BME280;2307;48.448;9.216;2023-07-31T12:26:45;95190.19;;;22.55;65.12
4590;BME280;2307;48.448;9.216;2023-07-31T12:29:11;95194.31;;;22.44;68.87
4590;BME280;2307;48.448;9.216;2023-07-31T12:31:38;95195.44;;;22.60;70.81
4590;BME280;2307;48.448;9.216;2023-07-31T12:34:15;95185.66;;;22.81;65.03
4590;BME280;2307;48.448;9.216;2023-07-31T12:36:42;95179.00;;;22.87;66.14
4590;BME280;2307;48.448;9.216;2023-07-31T12:39:09;95175.03;;;23.19;66.05
4590;BME280;2307;48.448;9.216;2023-07-31T12:41:36;95163.56;;;23.56;62.36
4590;BME280;2307;48.448;9.216;2023-07-31T12:44:02;95169.81;;;23.86;56.97
4590;BME280;2307;48.448;9.216;2023-07-31T12:46:29;95158.59;;;24.05;56.82
4590;BME280;2307;48.448;9.216;2023-07-31T12:48:55;95159.53;;;24.09;55.18
4590;BME280;2307;48.448;9.216;2023-07-31T12:51:23;95157.09;;;24.24;58.46
4590;BME280;2307;48.448;9.216;2023-07-31T12:53:49;95159.81;;;24.24;55.48
4590;BME280;2307;48.448;9.216;2023-07-31T12:56:16;95154.34;;;24.33;57.95
4590;BME280;2307;48.448;9.216;2023-07-31T12:58:43;95157.25;;;24.49;56.46
4590;BME280;2307;48.448;9.216;2023-07-31T13:01:10;95149.72;;;24.63;55.42
4590;BME280;2307;48.448;9.216;2023-07-31T13:03:36;95147.47;;;24.44;50.77
4590;BME280;2307;48.448;9.216;2023-07-31T13:06:03;95135.16;;;24.76;51.78
4590;BME280;2307;48.448;9.216;2023-07-31T13:08:32;95130.13;;;25.07;50.68
4590;BME280;2307;48.448;9.216;2023-07-31T13:10:58;95131.44;;;25.34;50.17
4590;BME280;2307;48.448;9.216;2023-07-31T13:13:24;95125.16;;;25.42;49.90
4590;BME280;2307;48.448;9.216;2023-07-31T13:15:51;95135.31;;;25.45;46.79
4590;BME280;2307;48.448;9.216;2023-07-31T13:18:17;95118.97;;;25.42;46.93